Time;durP1;ratioP1;P1;durP2;ratioP2;P2;SDS_P1;SDS_P2;PMS_P1;PMS_P2;Temp;Humidity;BMP_temperature;BMP_pressure;BME280_temperature;BME280_humidity;BME280_pressure;Samples;Min_cycle;Max_cycle;Signal;HPM_P1;HPM_P2
2023/11/21 00:01:28;;;;;;;2.73;1.10;;;7.80;96.00;;;7.13;100.00;97362.13;4945869;28;20997;-74
2023/11/21 00:03:55;;;;;;;3.70;1.90;;;7.70;95.60;;;7.21;100.00;97369.16;4943203;28;20457;-72
2023/11/21 00:06:22;;;;;;;2.63;1.40;;;7.70;96.00;;;7.21;100.00;97363.78;4956656;28;20889;-74
2023/11/21 00:08:51;;;;;;;2.00;1.60;;;7.70;96.60;;;7.27;100.00;97343.28;4946880;28;20469;-74
2023/11/21 00:11:18;;;;;;;2.17;1.70;;;7.80;96.70;;;7.33;100.00;97359.38;4947486;28;20569;-74
2023/11/21 00:13:45;;;;;;;1.97;1.20;;;7.80;96.70;;;7.27;100.00;97357.56;4948609;28;20533;-73
2023/11/21 00:16:12;;;;;;;1.47;1.10;;;7.80;95.90;;;7.35;99.83;97360.03;4942916;28;20489;-74
2023/11/21 00:18:39;;;;;;;1.90;1.27;;;7.90;95.40;;;7.17;100.00;97359.84;4948470;28;20538;-74
2023/11/21 00:21:08;;;;;;;3.70;1.30;;;7.80;95.30;;;7.23;100.00;97356.31;4945593;28;20465;-73
2023/11/21 00:23:36;;;;;;;4.17;1.70;;;7.80;94.90;;;7.28;100.00;97359.19;4945309;29;21010;-75
2023/11/21 00:26:04;;;;;;;4.70;1.20;;;7.80;95.00;;;7.44;99.84;97365.16;4944382;28;20471;-74
2023/11/21 00:28:32;;;;;;;2.63;1.33;;;7.90;95.10;;;7.40;99.60;97361.25;4945691;28;20473;-73
2023/11/21 00:30:59;;;;;;;1.70;1.00;;;7.90;94.90;;;7.38;99.42;97358.75;4945776;28;20509;-71
2023/11/21 00:33:27;;;;;;;1.90;1.43;;;7.90;95.00;;;7.58;98.01;97357.84;4961642;28;20460;-74
2023/11/21 00:35:54;;;;;;;2.77;1.77;;;8.00;94.80;;;7.55;98.48;97355.59;4966066;28;20475;-74
2023/11/21 00:38:21;;;;;;;3.07;2.00;;;8.00;94.60;;;7.43;99.05;97342.00;4954423;28;20464;-73
2023/11/21 00:40:48;;;;;;;3.30;1.97;;;8.00;94.50;;;7.37;100.00;97352.56;4951066;28;20465;-73
2023/11/21 00:43:17;;;;;;;4.20;2.37;;;8.00;94.90;;;7.28;100.00;97340.38;4946279;28;20966;-72
2023/11/21 00:45:44;;;;;;;3.13;1.60;;;8.00;95.30;;;7.25;100.00;97351.56;4940945;28;20464;-73
2023/11/21 00:48:13;;;;;;;2.13;1.80;;;7.90;94.80;;;7.41;100.00;97347.56;4943776;28;20498;-73
2023/11/21 00:50:41;;;;;;;2.13;1.50;;;7.90;95.50;;;7.36;100.00;97339.34;4940438;28;20454;-72
2023/11/21 00:53:08;;;;;;;6.63;1.83;;;7.90;95.50;;;7.34;100.00;97346.78;4945721;29;21130;-74
2023/11/21 00:55:35;;;;;;;3.17;1.60;;;7.90;96.80;;;7.24;100.00;97341.84;4946134;28;20457;-73
2023/11/21 00:58:04;;;;;;;2.20;1.93;;;7.90;97.00;;;7.21;100.00;97342.28;4948734;28;21330;-73
2023/11/21 01:00:33;;;;;;;2.70;1.60;;;7.80;97.40;;;7.22;100.00;97357.38;4950080;28;20493;-73
2023/11/21 01:03:00;;;;;;;4.20;1.67;;;7.80;98.20;;;7.21;100.00;97350.34;4948075;28;20440;-73
2023/11/21 01:05:27;;;;;;;2.70;1.97;;;7.70;98.60;;;7.28;100.00;97350.28;4948445;29;20822;-74
2023/11/21 01:07:54;;;;;;;2.97;2.10;;;7.80;98.90;;;7.17;100.00;97349.09;4949950;29;20449;-74
2023/11/21 01:10:22;;;;;;;2.57;1.83;;;7.80;98.70;;;7.25;100.00;97359.63;4947095;28;20460;-74
2023/11/21 01:12:49;;;;;;;2.50;2.17;;;7.80;99.30;;;6.85;100.00;97284.47;4945503;28;20451;-73
2023/11/21 01:15:16;;;;;;;6.07;2.03;;;7.90;99.70;;;7.22;100.00;97349.31;4947054;29;20869;-73
2023/11/21 01:17:45;;;;;;;5.17;2.40;;;7.90;99.00;;;7.23;100.00;97357.13;4946859;29;20482;-74
2023/11/21 01:20:12;;;;;;;2.27;1.90;;;7.80;99.10;;;7.25;100.00;97354.25;4963726;28;21347;-74
2023/11/21 01:22:40;;;;;;;3.53;2.10;;;7.80;99.30;;;7.04;100.00;97329.28;4935970;28;20459;-74
2023/11/21 01:25:08;;;;;;;8.20;2.70;;;7.80;99.30;;;6.75;100.00;97285.75;4945148;28;20466;-73
2023/11/21 01:27:36;;;;;;;4.90;2.20;;;7.80;98.90;;;7.26;100.00;97355.91;4948456;28;20493;-75
2023/11/21 01:30:07;;;;;;;3.13;2.03;;;7.80;99.10;;;7.27;100.00;97352.19;4948747;28;20458;-73
2023/11/21 01:32:34;;;;;;;2.90;2.10;;;7.90;98.70;;;7.34;100.00;97357.53;4946885;29;20516;-73
2023/11/21 01:35:05;;;;;;;4.10;2.50;;;7.90;97.80;;;7.23;100.00;97338.31;4949028;28;20494;-72
2023/11/21 01:37:32;;;;;;;3.00;2.50;;;7.90;97.40;;;7.23;100.00;97351.75;4948616;28;20536;-73
2023/11/21 01:40:01;;;;;;;4.43;1.90;;;7.90;97.40;;;7.07;100.00;97346.84;4945899;28;20513;-73
2023/11/21 01:42:29;;;;;;;5.00;1.93;;;7.90;96.70;;;7.13;100.00;97351.38;4946785;28;20477;-72
2023/11/21 01:44:56;;;;;;;2.90;1.67;;;7.80;96.70;;;7.17;100.00;97357.16;4943651;28;20549;-74
2023/11/21 01:47:24;;;;;;;3.90;1.93;;;7.80;96.70;;;7.16;100.00;97355.50;4949463;28;20540;-73
2023/11/21 01:49:51;;;;;;;4.00;1.70;;;7.70;96.60;;;7.19;100.00;97347.00;4945728;28;20454;-73
2023/11/21 01:52:20;;;;;;;4.03;2.07;;;7.70;97.40;;;7.12;100.00;97351.59;4950429;28;20465;-78
2023/11/21 01:54:48;;;;;;;1.50;1.33;;;7.70;97.20;;;6.97;100.00;97358.00;4952677;28;20465;-74
2023/11/21 01:57:15;;;;;;;5.37;2.80;;;7.70;96.50;;;7.06;100.00;97346.03;4955483;28;21017;-72
2023/11/21 01:59:45;;;;;;;4.67;1.63;;;7.70;96.70;;;7.03;100.00;97348.28;4963098;28;20450;-72
2023/11/21 02:02:13;;;;;;;3.70;1.90;;;7.70;96.90;;;6.63;100.00;97258.69;4953545;28;20473;-73
2023/11/21 02:04:40;;;;;;;3.93;1.57;;;7.70;97.30;;;7.16;100.00;97342.91;4953372;28;20457;-74
2023/11/21 02:07:08;;;;;;;4.30;1.97;;;7.80;97.20;;;7.05;100.00;97339.00;4950038;28;20553;-73
2023/11/21 02:09:38;;;;;;;2.43;1.80;;;7.80;97.40;;;7.03;100.00;97342.94;4945621;28;20459;-73
2023/11/21 02:12:07;;;;;;;2.07;1.67;;;7.70;97.20;;;7.03;100.00;97324.13;4963481;28;20462;-75
2023/11/21 02:14:34;;;;;;;3.30;1.93;;;7.70;97.70;;;7.15;100.00;97326.97;4946446;28;20517;-73
2023/11/21 02:17:03;;;;;;;5.43;2.63;;;7.70;97.90;;;7.19;100.00;97338.94;4948369;28;20569;-73
2023/11/21 02:19:32;;;;;;;3.20;1.80;;;7.70;97.50;;;6.98;100.00;97322.06;4948990;28;21181;-74
2023/11/21 02:22:03;;;;;;;4.13;1.73;;;7.70;96.70;;;7.23;100.00;97340.22;4945736;28;20481;-72
2023/11/21 02:24:32;;;;;;;2.47;2.07;;;7.70;97.20;;;7.19;100.00;97334.41;4944862;28;20450;-74
2023/11/21 02:26:59;;;;;;;2.90;1.80;;;7.70;96.60;;;7.06;100.00;97327.22;4946526;28;20521;-73
2023/11/21 02:29:27;;;;;;;5.20;2.47;;;7.70;96.10;;;7.12;100.00;97327.41;4948972;28;20469;-75
2023/11/21 02:31:56;;;;;;;3.80;1.80;;;7.80;95.80;;;7.23;100.00;97340.22;4944148;29;20610;-75
2023/11/21 02:34:24;;;;;;;3.30;1.80;;;7.80;95.80;;;6.76;100.00;97265.94;4946499;28;20450;-75
2023/11/21 02:36:52;;;;;;;1.50;1.40;;;7.80;95.70;;;6.98;100.00;97346.22;4943933;28;20497;-74
2023/11/21 02:39:21;;;;;;;1.63;1.20;;;7.70;95.40;;;6.96;100.00;97337.56;4948455;28;20517;-74
2023/11/21 02:41:50;;;;;;;2.03;1.37;;;7.60;95.80;;;6.93;100.00;97341.47;4947374;28;20446;-73
2023/11/21 02:44:17;;;;;;;1.87;1.60;;;7.50;96.30;;;7.14;100.00;97333.41;4945275;28;20473;-72
2023/11/21 02:46:45;;;;;;;2.20;1.53;;;7.70;96.90;;;7.08;100.00;97333.22;4946914;28;20530;-73
2023/11/21 02:49:12;;;;;;;1.60;1.50;;;7.70;96.70;;;7.12;100.00;97335.47;4947744;28;20458;-70
2023/11/21 02:51:39;;;;;;;4.20;1.40;;;7.70;96.10;;;7.06;100.00;97326.38;4942973;28;20449;-72
2023/11/21 02:54:08;;;;;;;3.57;1.60;;;7.70;95.90;;;7.10;100.00;97330.28;4948228;28;20470;-72
2023/11/21 02:56:35;;;;;;;3.17;1.50;;;7.70;96.20;;;7.12;100.00;97332.78;4939481;28;20871;-72
2023/11/21 02:59:04;;;;;;;2.50;1.83;;;7.70;96.20;;;6.96;100.00;97324.13;4947160;28;20924;-72
2023/11/21 03:01:31;;;;;;;3.43;1.60;;;7.60;95.90;;;7.01;100.00;97326.19;4941784;29;20467;-73
2023/11/21 03:03:59;;;;;;;3.00;1.87;;;7.60;96.80;;;7.00;100.00;97322.66;4947196;28;20489;-73
2023/11/21 03:06:26;;;;;;;4.37;1.93;;;7.60;96.80;;;7.06;100.00;97324.53;4945925;28;20462;-72
2023/11/21 03:08:54;;;;;;;3.37;1.90;;;7.60;97.30;;;7.17;100.00;97331.13;4962258;28;20461;-73
2023/11/21 03:11:21;;;;;;;2.97;1.80;;;7.70;97.40;;;6.76;100.00;97268.63;4962776;28;20458;-72
2023/11/21 03:13:48;;;;;;;2.73;2.53;;;7.70;97.20;;;7.05;100.00;97325.56;4947262;29;20539;-73
2023/11/21 03:16:19;;;;;;;2.33;2.13;;;7.60;97.00;;;7.21;100.00;97326.97;4947126;28;20458;-73
2023/11/21 03:18:46;;;;;;;3.63;2.33;;;7.70;97.60;;;7.11;100.00;97312.34;4947803;28;20465;-73
2023/11/21 03:21:13;;;;;;;3.37;2.30;;;7.80;96.80;;;7.03;100.00;97329.50;4945959;28;20442;-73
2023/11/21 03:23:41;;;;;;;3.20;2.10;;;7.70;96.50;;;7.13;100.00;97339.81;4946251;28;20720;-74
2023/11/21 03:26:14;;;;;;;2.40;2.20;;;7.70;97.20;;;7.16;100.00;97334.00;4943935;28;21117;-73
2023/11/21 03:28:41;;;;;;;3.70;2.10;;;7.70;97.40;;;7.09;100.00;97339.38;4942566;29;20485;-74
2023/11/21 03:31:09;;;;;;;3.97;2.43;;;7.70;97.20;;;7.18;100.00;97342.69;4944322;28;20454;-72
2023/11/21 03:33:37;;;;;;;2.70;2.40;;;7.70;97.70;;;7.15;100.00;97338.56;4961589;28;20541;-72
2023/11/21 03:36:05;;;;;;;2.47;2.00;;;7.70;97.40;;;7.16;100.00;97336.69;4944415;28;20481;-72
2023/11/21 03:38:32;;;;;;;3.90;2.37;;;7.70;97.40;;;7.19;100.00;97338.94;4947796;28;20949;-72
2023/11/21 03:41:00;;;;;;;3.83;2.70;;;7.70;97.50;;;7.25;100.00;97339.97;4944486;28;20467;-70
2023/11/21 03:43:27;;;;;;;4.50;1.93;;;7.70;97.60;;;7.17;100.00;97330.28;4947059;28;20585;-71
2023/11/21 03:45:54;;;;;;;3.53;2.47;;;7.80;97.50;;;7.25;100.00;97332.75;4942198;28;20515;-74
2023/11/21 03:48:21;;;;;;;3.83;2.30;;;7.80;97.20;;;7.21;100.00;97331.53;4943799;28;20558;-73
2023/11/21 03:50:51;;;;;;;3.67;2.67;;;7.80;97.00;;;7.26;100.00;97328.19;4945087;28;20550;-73
2023/11/21 03:53:18;;;;;;;3.97;2.80;;;7.80;97.00;;;7.29;100.00;97339.34;4943058;28;20458;-73
2023/11/21 03:55:45;;;;;;;3.50;2.63;;;7.80;96.80;;;7.22;100.00;97334.00;4946075;28;20455;-73
2023/11/21 03:58:14;;;;;;;3.93;2.80;;;7.80;96.40;;;7.34;100.00;97334.16;4946134;28;20501;-72
2023/11/21 04:00:41;;;;;;;6.40;3.30;;;7.90;97.00;;;7.27;100.00;97337.91;4948527;28;20478;-74
2023/11/21 04:03:08;;;;;;;5.97;2.80;;;7.80;97.00;;;7.25;100.00;97337.28;4940054;29;21018;-74
2023/11/21 04:05:35;;;;;;;3.80;2.70;;;7.80;96.80;;;7.12;100.00;97322.03;4948321;28;20453;-74
2023/11/21 04:08:05;;;;;;;3.93;3.00;;;7.90;96.60;;;7.16;100.00;97344.75;4950015;28;20458;-74
2023/11/21 04:10:32;;;;;;;3.10;2.57;;;7.80;96.50;;;7.07;100.00;97341.47;4950111;28;20466;-74
2023/11/21 04:13:00;;;;;;;7.50;3.23;;;7.70;96.80;;;7.11;100.00;97336.50;4947713;28;20447;-74
2023/11/21 04:15:27;;;;;;;3.80;2.90;;;7.70;97.10;;;7.16;100.00;97334.00;4950132;29;21049;-74
2023/11/21 04:17:56;;;;;;;3.57;2.83;;;7.70;98.10;;;7.22;100.00;97333.19;4947071;28;20510;-73
2023/11/21 04:20:23;;;;;;;5.10;3.17;;;7.80;97.50;;;7.23;100.00;97335.63;4942388;29;20486;-74
2023/11/21 04:22:53;;;;;;;3.50;2.70;;;7.80;96.80;;;7.28;100.00;97332.31;4946917;28;20497;-72
2023/11/21 04:25:23;;;;;;;3.33;2.43;;;7.80;96.90;;;7.01;100.00;97324.31;4945229;28;21006;-73
2023/11/21 04:27:50;;;;;;;2.70;2.40;;;7.80;96.10;;;7.09;100.00;97342.06;4949209;29;20486;-73
2023/11/21 04:30:17;;;;;;;2.30;1.97;;;7.70;96.70;;;7.24;100.00;97344.53;4942592;28;20473;-71
2023/11/21 04:32:45;;;;;;;2.50;2.30;;;7.80;96.20;;;7.18;100.00;97321.19;4943309;29;20794;-72
2023/11/21 04:35:12;;;;;;;3.57;1.70;;;7.80;96.40;;;7.11;100.00;97337.31;4946011;28;20458;-74
2023/11/21 04:37:39;;;;;;;4.70;2.00;;;7.80;96.00;;;7.10;100.00;97341.03;4959956;28;20522;-72
2023/11/21 04:40:09;;;;;;;2.10;1.70;;;7.70;96.00;;;7.14;100.00;97336.91;4948015;28;20464;-73
2023/11/21 04:42:37;;;;;;;6.67;2.73;;;7.70;95.80;;;7.17;100.00;97358.00;4946626;28;20529;-73
2023/11/21 04:45:09;;;;;;;3.90;1.87;;;7.70;95.80;;;7.07;100.00;97341.47;4943458;29;20454;-72
2023/11/21 04:47:37;;;;;;;5.10;2.07;;;7.70;95.80;;;7.00;100.00;97354.91;4947072;28;21124;-74
2023/11/21 04:50:07;;;;;;;3.50;2.53;;;7.60;96.00;;;6.41;100.00;97258.09;4950899;28;20462;-74
2023/11/21 04:52:34;;;;;;;3.50;2.00;;;7.60;96.50;;;7.11;100.00;97352.63;4944755;28;20461;-74
2023/11/21 04:55:02;;;;;;;3.83;2.63;;;7.70;96.30;;;7.21;100.00;97355.72;4948903;28;20541;-74
2023/11/21 04:57:29;;;;;;;3.93;2.70;;;7.70;96.40;;;7.26;100.00;97363.97;4945197;28;20473;-71
2023/11/21 04:59:58;;;;;;;5.90;2.80;;;7.70;96.40;;;7.15;100.00;97364.59;4948084;28;21241;-74
2023/11/21 05:02:25;;;;;;;3.40;2.27;;;7.70;96.40;;;7.16;100.00;97367.09;4947109;28;20676;-74
2023/11/21 05:04:53;;;;;;;4.10;2.47;;;7.70;96.40;;;7.28;100.00;97364.56;4946458;28;20811;-72
2023/11/21 05:07:20;;;;;;;2.87;2.20;;;7.80;96.30;;;7.19;100.00;97352.38;4949103;29;20469;-73
2023/11/21 05:09:48;;;;;;;6.43;2.50;;;7.80;95.90;;;7.21;100.00;97361.09;4947350;28;21130;-71
2023/11/21 05:12:16;;;;;;;3.60;2.20;;;7.80;96.00;;;7.19;100.00;97360.44;4943602;28;21036;-72
2023/11/21 05:14:43;;;;;;;3.50;2.27;;;7.70;96.00;;;7.14;100.00;97352.19;4947332;28;20451;-74
2023/11/21 05:17:11;;;;;;;5.80;2.67;;;7.70;96.50;;;7.31;100.00;97364.16;4949822;28;20497;-73
2023/11/21 05:19:40;;;;;;;4.40;2.83;;;7.80;96.50;;;7.34;100.00;97354.84;4947298;29;20454;-74
2023/11/21 05:22:08;;;;;;;5.00;2.33;;;7.80;96.20;;;7.34;100.00;97368.28;4948691;28;20776;-76
2023/11/21 05:24:36;;;;;;;4.37;2.30;;;7.90;95.70;;;7.37;100.00;97368.69;4947064;28;20521;-76
2023/11/21 05:27:03;;;;;;;7.43;2.70;;;7.90;96.30;;;7.12;100.00;97316.66;4955523;28;20799;-76
2023/11/21 05:29:31;;;;;;;3.20;2.13;;;7.90;96.00;;;7.40;100.00;97370.13;4948319;28;20462;-73
2023/11/21 05:31:58;;;;;;;3.43;2.63;;;7.90;96.20;;;7.35;100.00;97368.09;4946667;28;20827;-72
2023/11/21 05:34:27;;;;;;;4.23;2.93;;;7.90;96.20;;;7.39;100.00;97381.91;4948081;29;20473;-73
2023/11/21 05:36:54;;;;;;;7.87;3.70;;;7.80;96.00;;;7.48;100.00;97390.56;4945722;28;20674;-75
2023/11/21 05:39:21;;;;;;;7.60;3.70;;;7.90;96.70;;;7.50;100.00;97388.50;4950372;29;20455;-75
2023/11/21 05:41:49;;;;;;;10.33;4.90;;;8.00;96.00;;;7.53;100.00;97387.25;4948461;29;20958;-74
2023/11/21 05:44:16;;;;;;;7.57;4.60;;;7.90;96.10;;;7.43;100.00;97396.59;4951009;28;20545;-74
2023/11/21 05:46:44;;;;;;;8.90;4.80;;;7.90;95.50;;;7.48;100.00;97388.72;4955312;28;20454;-73
2023/11/21 05:49:11;;;;;;;6.93;5.17;;;7.90;96.40;;;7.51;100.00;97401.72;4953739;28;20462;-73
2023/11/21 05:51:39;;;;;;;8.60;4.60;;;8.00;96.30;;;7.41;100.00;97370.97;4945966;28;20475;-74
2023/11/21 05:54:08;;;;;;;7.67;4.30;;;8.00;96.40;;;7.51;100.00;97395.53;4949805;28;20446;-73
2023/11/21 05:56:35;;;;;;;6.53;4.67;;;8.00;96.20;;;7.51;100.00;97400.91;4947887;29;20937;-72
2023/11/21 05:59:03;;;;;;;7.07;4.30;;;8.00;95.90;;;7.60;100.00;97398.81;4948959;28;20478;-71
2023/11/21 06:01:30;;;;;;;6.40;4.10;;;8.10;96.10;;;7.68;100.00;97400.47;4945032;29;20466;-73
2023/11/21 06:03:58;;;;;;;5.93;3.70;;;8.10;96.00;;;7.55;100.00;97369.88;4947506;28;20557;-71
2023/11/21 06:06:26;;;;;;;5.00;3.10;;;8.10;95.70;;;7.64;100.00;97397.34;4944207;28;20452;-72
2023/11/21 06:08:55;;;;;;;5.00;3.33;;;8.10;95.40;;;7.64;100.00;97406.22;4942032;28;20538;-71
2023/11/21 06:11:22;;;;;;;7.07;3.73;;;8.20;95.80;;;7.60;100.00;97402.31;4948472;28;20486;-76
2023/11/21 06:13:50;;;;;;;5.10;3.70;;;8.10;95.50;;;7.58;100.00;97412.47;4948495;29;20462;-72
2023/11/21 06:16:19;;;;;;;4.40;3.90;;;8.10;95.90;;;8.03;100.00;97413.56;4945541;28;20484;-74
2023/11/21 06:18:47;;;;;;;6.07;3.80;;;8.40;98.50;;;7.61;100.00;97401.28;4946963;28;20472;-74
2023/11/21 06:21:16;;;;;;;4.67;4.10;;;8.20;95.60;;;7.89;100.00;97418.97;4946188;28;20461;-74
2023/11/21 06:23:43;;;;;;;5.57;4.37;;;8.30;96.40;;;7.52;100.00;97407.94;4957966;28;20544;-74
2023/11/21 06:26:12;;;;;;;4.80;4.40;;;8.10;95.50;;;7.83;100.00;97417.16;4939392;28;20494;-74
2023/11/21 06:28:41;;;;;;;7.97;4.50;;;8.20;96.30;;;8.00;100.00;97408.59;4949158;28;20541;-81
2023/11/21 06:31:08;;;;;;;6.87;5.93;;;8.40;97.30;;;8.04;100.00;97410.66;4944791;28;20935;-78
2023/11/21 06:33:35;;;;;;;7.33;4.80;;;8.40;97.10;;;8.01;100.00;97421.81;4940967;29;20468;-73
2023/11/21 06:36:03;;;;;;;5.43;3.90;;;8.50;95.50;;;7.84;100.00;97410.75;4947437;28;20473;-75
2023/11/21 06:38:31;;;;;;;6.93;4.30;;;8.40;95.20;;;7.68;100.00;97416.59;4948007;28;21979;-75
2023/11/21 06:41:02;;;;;;;7.70;4.63;;;8.30;95.40;;;7.65;100.00;97424.00;4948154;29;20472;-70
2023/11/21 06:43:31;;;;;;;7.97;4.53;;;8.20;95.60;;;7.78;100.00;97427.72;4945794;29;20454;-73
2023/11/21 06:45:59;;;;;;;11.43;4.50;;;8.20;96.40;;;7.79;100.00;97438.25;4958023;28;20549;-70
2023/11/21 06:48:27;;;;;;;7.07;4.10;;;8.30;96.10;;;7.58;100.00;97438.50;4948733;29;20481;-75
2023/11/21 06:50:54;;;;;;;9.10;6.30;;;8.20;95.60;;;7.56;100.00;97436.06;4947881;28;20454;-72
2023/11/21 06:53:21;;;;;;;8.93;5.60;;;8.20;96.00;;;7.43;100.00;97439.59;4950584;28;20533;-73
2023/11/21 06:55:48;;;;;;;6.70;5.30;;;8.10;95.90;;;7.28;100.00;97439.81;4945765;28;20454;-72
2023/11/21 06:58:15;;;;;;;6.57;5.67;;;8.00;96.40;;;7.49;100.00;97446.81;4947512;28;20489;-74
2023/11/21 07:00:46;;;;;;;6.97;5.33;;;8.10;97.60;;;7.39;100.00;97459.03;4946657;28;20473;-77
2023/11/21 07:03:13;;;;;;;5.00;4.47;;;8.00;97.50;;;7.31;100.00;97396.41;4944159;29;20553;-76
2023/11/21 07:05:41;;;;;;;6.03;5.07;;;8.20;98.30;;;7.58;100.00;97468.94;4945278;28;20462;-74
2023/11/21 07:08:08;;;;;;;6.83;5.13;;;8.20;97.10;;;7.50;100.00;97455.69;4943928;28;20458;-74
2023/11/21 07:10:36;;;;;;;9.10;5.23;;;8.20;97.10;;;7.61;100.00;97457.75;4948382;29;20457;-75
2023/11/21 07:13:03;;;;;;;5.20;4.70;;;8.20;96.60;;;7.58;100.00;97463.53;4946013;28;20486;-75
2023/11/21 07:15:30;;;;;;;7.50;4.87;;;8.20;96.20;;;7.60;100.00;97472.22;4946376;28;20442;-75
2023/11/21 07:17:59;;;;;;;7.40;4.83;;;8.20;96.30;;;7.93;100.00;97474.00;4945049;28;20670;-76
2023/11/21 07:20:26;;;;;;;8.70;6.00;;;8.30;97.90;;;7.89;100.00;97486.22;4943044;28;20470;-74
2023/11/21 07:22:54;;;;;;;7.70;5.73;;;8.30;96.50;;;8.01;100.00;97480.19;4949758;28;21209;-75
2023/11/21 07:25:22;;;;;;;6.80;6.10;;;8.40;97.10;;;8.29;100.00;97482.56;4943184;29;20562;-76
2023/11/21 07:27:49;;;;;;;7.53;5.20;;;8.60;97.40;;;7.96;99.79;97493.44;4942882;29;20521;-74
2023/11/21 07:30:17;;;;;;;5.60;4.60;;;8.60;95.10;;;8.03;100.00;97489.69;4942487;28;20469;-74
2023/11/21 07:32:44;;;;;;;6.13;5.03;;;8.50;95.70;;;8.32;100.00;97482.13;4945286;28;20458;-75
2023/11/21 07:35:13;;;;;;;7.97;5.10;;;8.60;96.00;;;8.55;97.75;97494.28;4945380;28;20453;-74
2023/11/21 07:37:40;;;;;;;6.03;5.43;;;8.90;95.10;;;8.86;96.46;97503.44;4945009;28;20497;-73
2023/11/21 07:40:09;;;;;;;9.43;7.40;;;9.10;94.30;;;8.40;95.67;97509.88;4947569;28;20466;-74
2023/11/21 07:42:36;;;;;;;9.00;5.00;;;9.00;92.70;;;8.31;97.70;97498.50;4944581;28;20478;-71
2023/11/21 07:45:05;;;;;;;7.00;4.77;;;8.90;93.00;;;8.63;96.46;97506.69;4944102;28;20452;-72
2023/11/21 07:47:34;;;;;;;6.10;5.17;;;9.00;93.70;;;8.95;94.24;97506.69;4946561;28;20453;-74
2023/11/21 07:50:02;;;;;;;6.60;5.90;;;9.20;93.10;;;8.93;91.95;97508.78;4943001;28;20469;-74
2023/11/21 07:52:31;;;;;;;7.20;5.53;;;9.30;91.60;;;9.02;92.87;97504.78;4944247;29;20468;-75
2023/11/21 07:54:58;;;;;;;5.33;4.80;;;9.30;91.60;;;8.90;91.47;97509.22;4947122;28;20458;-77
2023/11/21 07:57:26;;;;;;;6.40;5.20;;;9.40;91.10;;;8.47;92.89;97506.09;4963075;28;20985;-77
2023/11/21 07:59:53;;;;;;;6.27;5.60;;;9.20;90.60;;;9.00;91.74;97504.16;4932286;28;20515;-74
2023/11/21 08:02:21;;;;;;;8.37;5.13;;;9.30;91.20;;;9.25;90.00;97508.75;4946566;28;20463;-76
2023/11/21 08:04:49;;;;;;;6.27;5.67;;;9.50;90.70;;;9.29;88.12;97518.06;4945496;28;20474;-76
2023/11/21 08:07:16;;;;;;;7.20;5.70;;;9.70;90.20;;;9.52;89.32;97519.34;4945301;28;20464;-77
2023/11/21 08:09:49;;;;;;;5.93;5.33;;;9.90;90.70;;;9.56;90.20;97517.03;4947508;28;20531;-77
2023/11/21 08:12:17;;;;;;;6.93;5.67;;;9.80;90.50;;;9.50;87.02;97503.34;4947005;28;20462;-78
2023/11/21 08:14:44;;;;;;;8.33;5.37;;;10.00;88.90;;;9.51;86.76;97512.28;4947668;28;20468;-78
2023/11/21 08:17:11;;;;;;;6.87;5.70;;;9.90;89.40;;;9.15;87.82;97514.66;4945888;29;20449;-77
2023/11/21 08:19:38;;;;;;;6.00;5.40;;;9.70;89.40;;;9.11;87.76;97472.16;4964639;28;20521;-73
2023/11/21 08:22:08;;;;;;;6.30;5.23;;;9.80;89.80;;;9.01;86.61;97467.28;4962092;28;20458;-71
2023/11/21 08:24:35;;;;;;;7.63;5.83;;;9.90;89.50;;;9.60;86.98;97529.81;4950193;28;20451;-77
2023/11/21 08:27:06;;;;;;;8.40;6.70;;;10.00;88.50;;;9.60;86.69;97523.63;4951404;28;20486;-76
2023/11/21 08:29:34;;;;;;;7.00;6.00;;;10.00;88.10;;;9.45;87.90;97516.69;4952865;28;20466;-71
2023/11/21 08:32:02;;;;;;;7.60;6.27;;;9.90;89.10;;;9.31;87.48;97515.94;4948796;28;20725;-76
2023/11/21 08:34:29;;;;;;;6.53;5.60;;;9.80;89.00;;;8.87;87.86;97509.63;4957568;28;20876;-81
2023/11/21 08:36:57;;;;;;;8.30;5.83;;;9.60;88.60;;;8.77;88.52;97521.72;4953781;28;20462;-73
2023/11/21 08:39:25;;;;;;;11.23;7.07;;;9.40;88.60;;;8.73;91.02;97503.50;4946305;28;20844;-73
2023/11/21 08:41:52;;;;;;;7.10;6.40;;;9.30;89.90;;;9.11;90.14;97520.69;4950678;28;20521;-80
2023/11/21 08:44:21;;;;;;;7.70;6.73;;;9.40;90.40;;;9.47;87.95;97513.75;4950551;28;20526;-74
2023/11/21 08:46:49;;;;;;;8.40;6.97;;;9.70;90.30;;;9.58;86.84;97521.13;4946407;29;20547;-77
2023/11/21 08:49:17;;;;;;;8.60;6.90;;;9.80;89.60;;;9.42;86.49;97527.91;4947375;28;20506;-74
2023/11/21 08:51:46;;;;;;;8.20;6.83;;;9.80;88.50;;;9.45;86.01;97526.63;4953192;28;20500;-76
2023/11/21 08:54:13;;;;;;;7.43;6.70;;;9.80;88.60;;;9.32;88.24;97522.19;4954015;28;20972;-78
2023/11/21 08:56:41;;;;;;;8.10;7.30;;;9.70;89.30;;;9.69;85.71;97535.75;4955109;28;20531;-77
2023/11/21 08:59:09;;;;;;;6.63;5.97;;;10.00;87.70;;;9.83;86.41;97544.56;4955016;28;21002;-74
2023/11/21 09:01:37;;;;;;;9.73;8.43;;;10.10;87.50;;;9.40;86.14;97537.25;4953766;28;20468;-78
2023/11/21 09:04:05;;;;;;;9.53;7.93;;;10.00;86.60;;;9.17;86.61;97498.22;4951760;28;20458;-77
2023/11/21 09:06:32;;;;;;;8.83;7.20;;;9.90;88.20;;;9.60;84.82;97548.69;4950151;28;20453;-76
2023/11/21 09:08:59;;;;;;;9.47;6.77;;;10.00;86.70;;;9.69;84.34;97548.44;4965071;28;20456;-78
2023/11/21 09:11:33;;;;;;;9.60;7.43;;;10.00;86.80;;;9.54;84.19;97546.91;4948398;28;20458;-73
2023/11/21 09:14:00;;;;;;;9.77;8.60;;;10.00;86.40;;;9.50;84.83;97561.88;4951811;28;21034;-77
2023/11/21 09:16:28;;;;;;;7.40;6.70;;;10.00;86.30;;;9.61;84.94;97557.63;4947789;28;20462;-79
2023/11/21 09:18:56;;;;;;;9.40;6.83;;;10.10;87.40;;;9.26;86.17;97569.72;4953042;28;20489;-76
2023/11/21 09:21:24;;;;;;;8.73;7.30;;;9.90;87.30;;;9.29;87.07;97571.97;4946936;28;21238;-79
2023/11/21 09:23:52;;;;;;;8.20;7.20;;;9.80;87.70;;;9.15;87.43;97575.78;4953083;28;20458;-78
2023/11/21 09:26:19;;;;;;;7.60;6.80;;;9.70;88.10;;;9.25;86.17;97576.16;4946720;28;21004;-76
2023/11/21 09:28:47;;;;;;;8.10;7.40;;;9.80;87.80;;;9.24;87.72;97574.50;4949538;28;20628;-77
2023/11/21 09:31:16;;;;;;;8.50;6.97;;;9.60;88.30;;;9.38;86.99;97590.59;4953738;29;20454;-75
2023/11/21 09:33:43;;;;;;;7.00;6.30;;;9.80;88.50;;;9.26;84.95;97537.38;4954208;28;20688;-78
2023/11/21 09:36:14;;;;;;;11.23;7.17;;;9.90;88.10;;;9.80;85.31;97582.78;4957301;28;21136;-77
2023/11/21 09:38:42;;;;;;;7.13;6.50;;;10.00;87.30;;;9.96;84.37;97588.69;4959993;28;20478;-75
2023/11/21 09:41:22;;;;;;;6.90;6.20;;;10.10;86.90;;;9.89;83.97;97586.84;4960611;28;20450;-75
2023/11/21 09:43:56;;;;;;;10.37;6.87;;;10.20;86.30;;;10.16;82.88;97581.19;4959116;28;20446;-76
2023/11/21 09:46:27;;;;;;;7.20;6.50;;;10.40;86.30;;;10.21;81.89;97581.34;4951551;28;20488;-79
2023/11/21 09:48:57;;;;;;;8.33;7.53;;;10.40;85.90;;;10.13;82.05;97587.03;4958122;28;20460;-78
2023/11/21 09:51:30;;;;;;;11.10;6.67;;;10.50;85.70;;;10.05;81.48;97590.03;4951294;28;20454;-78
2023/11/21 09:54:01;;;;;;;8.10;7.30;;;10.40;85.50;;;10.00;82.46;97585.28;4956018;28;20539;-75
2023/11/21 09:56:29;;;;;;;9.20;6.33;;;10.30;85.50;;;10.09;82.00;97583.16;4947085;28;20456;-75
2023/11/21 09:58:58;;;;;;;6.87;6.10;;;10.40;85.30;;;9.77;82.79;97577.81;4948892;28;20555;-73
2023/11/21 10:01:28;;;;;;;8.90;7.40;;;10.40;85.40;;;9.66;84.78;97581.25;4947372;28;20501;-74
2023/11/21 10:03:56;;;;;;;6.57;5.97;;;10.10;85.60;;;9.59;85.23;97584.81;4949452;28;20488;-79
2023/11/21 10:06:26;;;;;;;5.90;5.10;;;10.00;85.90;;;9.75;83.00;97574.50;4943227;28;20464;-79
2023/11/21 10:08:56;;;;;;;7.83;5.90;;;10.10;85.50;;;9.73;83.28;97574.75;4949524;28;20534;-80
2023/11/21 10:11:26;;;;;;;6.73;5.63;;;10.10;85.50;;;9.80;82.99;97577.41;4947628;29;20482;-79
2023/11/21 10:13:57;;;;;;;8.73;6.20;;;10.10;85.60;;;9.66;84.18;97581.25;4952092;28;20542;-79
2023/11/21 10:16:27;;;;;;;7.73;6.10;;;10.00;85.70;;;9.66;83.83;97582.06;4948634;28;20985;-80
2023/11/21 10:18:56;;;;;;;6.60;6.00;;;10.00;85.80;;;9.43;83.64;97523.34;4948963;28;20512;-78
2023/11/21 10:21:24;;;;;;;4.10;3.80;;;10.10;86.20;;;10.05;80.40;97576.53;4946032;28;20498;-79
2023/11/21 10:23:54;;;;;;;4.93;4.40;;;10.30;85.10;;;10.34;79.82;97580.38;4947987;28;20617;-80
2023/11/21 10:26:23;;;;;;;4.97;4.47;;;10.50;84.50;;;10.51;79.30;97579.81;4943827;28;20661;-79
2023/11/21 10:28:58;;;;;;;5.60;5.00;;;10.70;84.30;;;10.86;78.01;97583.78;4948727;28;20558;-77
2023/11/21 10:31:28;;;;;;;4.83;4.43;;;11.00;84.00;;;10.80;77.70;97581.97;4948712;28;20516;-78